Time;durP1;ratioP1;P1;durP2;ratioP2;P2;SDS_P1;SDS_P2;PMS_P1;PMS_P2;Temp;Humidity;BMP_temperature;BMP_pressure;BME280_temperature;BME280_humidity;BME280_pressure;Samples;Min_cycle;Max_cycle;Signal;HPM_P1;HPM_P2
2022/01/06 00:00:19;;;;;;;19.47;3.67;;;;;;;2.57;83.69;101450.41;5051722;28;20387;-85
2022/01/06 00:02:45;;;;;;;21.80;3.60;;;;;;;2.55;83.77;101447.00;5050608;28;20447;-85
2022/01/06 00:05:10;;;;;;;20.00;3.40;;;;;;;2.54;83.50;101452.06;5049446;28;20028;-85
2022/01/06 00:07:35;;;;;;;15.93;2.90;;;;;;;2.54;83.16;101446.94;5050796;28;20384;-85
2022/01/06 00:10:01;;;;;;;18.73;3.10;;;;;;;2.48;83.24;101447.72;5050741;28;20036;-85
2022/01/06 00:12:38;;;;;;;18.77;2.80;;;;;;;2.48;83.69;101455.41;5050398;28;20025;-85
2022/01/06 00:15:24;;;;;;;20.17;3.53;;;;;;;2.45;83.48;101452.78;5051589;28;20056;-85
2022/01/06 00:25:43;;;;;;;22.70;3.20;;;;;;;2.35;83.21;101466.31;5050095;28;20033;-85
2022/01/06 00:28:08;;;;;;;21.50;3.20;;;;;;;2.33;83.17;101465.41;5047396;28;20102;-85
2022/01/06 00:30:33;;;;;;;22.67;3.50;;;;;;;2.32;83.29;101471.38;5051255;28;20029;-85
2022/01/06 00:33:00;;;;;;;20.80;3.00;;;;;;;2.28;83.24;101476.44;5032028;28;20051;-85
2022/01/06 00:35:25;;;;;;;18.77;3.03;;;;;;;2.27;83.30;101474.72;5050360;28;20025;-85
2022/01/06 00:37:50;;;;;;;24.57;3.93;;;;;;;2.25;83.41;101473.81;5050534;28;20542;-85
2022/01/06 00:40:16;;;;;;;17.27;3.20;;;;;;;2.26;83.22;101482.41;5050109;28;20039;-85
2022/01/06 00:42:42;;;;;;;20.63;3.30;;;;;;;2.25;83.41;101480.66;5049739;28;20021;-85
2022/01/06 00:45:08;;;;;;;21.67;3.30;;;;;;;2.21;83.46;101484.88;5050401;28;20488;-85
2022/01/06 00:47:33;;;;;;;21.20;3.10;;;;;;;2.19;83.38;101478.84;5048125;28;20043;-85
2022/01/06 00:49:58;;;;;;;18.03;3.37;;;;;;;2.18;83.54;101483.94;5053319;28;20037;-85
2022/01/06 00:52:23;;;;;;;20.30;3.17;;;;;;;2.20;83.49;101484.84;5053033;28;20488;-85
2022/01/06 00:54:49;;;;;;;21.97;3.47;;;;;;;2.18;83.47;101482.25;5052996;28;20090;-85
2022/01/06 00:57:14;;;;;;;22.80;3.27;;;;;;;2.19;83.82;101481.44;5035174;28;20025;-85
2022/01/06 00:59:40;;;;;;;17.43;3.30;;;;;;;2.20;83.76;101483.16;5049335;28;20025;-85
2022/01/06 01:02:05;;;;;;;21.20;3.50;;;;;;;2.23;83.58;101485.75;5051972;28;20044;-85
2022/01/06 01:04:30;;;;;;;18.27;3.07;;;;;;;2.26;83.53;101488.38;5053650;28;20082;-85
2022/01/06 01:06:55;;;;;;;20.23;3.33;;;;;;;2.27;83.83;101486.72;5051619;28;20495;-85
2022/01/06 01:09:21;;;;;;;17.97;3.57;;;;;;;2.28;83.78;101485.88;5053558;28;20214;-86
2022/01/06 01:11:46;;;;;;;23.67;3.67;;;;;;;2.27;83.50;101490.13;5054245;28;20039;-86
2022/01/06 01:14:22;;;;;;;24.83;4.17;;;;;;;2.25;83.70;101483.25;5036290;28;20033;-85
2022/01/06 01:16:54;;;;;;;21.03;3.53;;;;;;;2.23;83.91;101483.19;5058279;28;20496;-85
2022/01/06 01:19:20;;;;;;;21.97;3.80;;;;;;;2.21;84.07;101492.59;5053205;28;20113;-85
2022/01/06 01:21:46;;;;;;;21.63;3.97;;;;;;;2.18;83.90;101497.66;5054348;28;20071;-86
2022/01/06 01:24:12;;;;;;;19.63;3.60;;;;;;;2.14;84.02;101498.44;5053200;28;20507;-85
2022/01/06 01:26:37;;;;;;;16.40;3.70;;;;;;;2.10;84.10;101501.75;5052341;28;20075;-85
2022/01/06 01:29:03;;;;;;;20.60;3.57;;;;;;;2.07;83.85;101502.56;5052854;28;20031;-86
2022/01/06 01:31:35;;;;;;;20.30;3.03;;;;;;;2.06;83.98;101497.41;5054451;28;20033;-86
2022/01/06 01:34:07;;;;;;;23.50;3.43;;;;;;;2.03;84.28;101490.50;5060118;28;20095;-85
2022/01/06 01:36:33;;;;;;;24.30;3.80;;;;;;;2.01;83.99;101493.91;5054523;28;20028;-85
2022/01/06 01:38:58;;;;;;;25.30;3.80;;;;;;;1.99;84.03;101504.09;5055255;28;20022;-85
2022/01/06 01:41:23;;;;;;;20.57;3.03;;;;;;;1.98;84.13;101502.38;5053085;28;20039;-85
2022/01/06 01:43:50;;;;;;;20.83;3.10;;;;;;;1.95;83.85;101508.31;5054267;28;20017;-85
2022/01/06 01:46:17;;;;;;;19.70;4.03;;;;;;;1.95;83.97;101512.59;5034812;28;20507;-85
2022/01/06 01:48:51;;;;;;;21.70;3.50;;;;;;;1.92;83.95;101513.38;5035343;28;20025;-85
2022/01/06 01:51:16;;;;;;;18.80;3.23;;;;;;;1.93;84.11;101530.50;5053523;28;20024;-85
2022/01/06 01:53:42;;;;;;;21.50;3.73;;;;;;;1.90;84.11;101538.16;5052927;28;20025;-85
2022/01/06 01:56:09;;;;;;;20.67;3.30;;;;;;;1.88;84.03;101537.25;5052571;28;20048;-85
2022/01/06 01:58:36;;;;;;;21.63;3.80;;;;;;;1.87;83.91;101545.81;5053124;28;20029;-85
2022/01/06 02:01:02;;;;;;;19.10;3.40;;;;;;;1.84;84.20;101550.84;5052232;28;20024;-85
2022/01/06 02:03:28;;;;;;;20.30;3.13;;;;;;;1.84;83.99;101549.97;5035359;28;20021;-85
2022/01/06 02:05:53;;;;;;;22.63;3.53;;;;;;;1.82;84.02;101550.81;5049862;28;20029;-86
2022/01/06 02:08:18;;;;;;;19.33;3.47;;;;;;;1.81;84.11;101551.63;5051931;28;20025;-85
2022/01/06 02:10:43;;;;;;;19.50;3.70;;;;;;;1.80;83.88;101552.47;5047798;28;20029;-85
2022/01/06 02:13:09;;;;;;;22.37;4.00;;;;;;;1.80;83.88;101559.31;5051996;28;20472;-85
2022/01/06 02:15:34;;;;;;;19.67;3.27;;;;;;;1.80;84.19;101560.16;5051378;28;20082;-85
2022/01/06 02:18:00;;;;;;;19.60;3.60;;;;;;;1.78;83.98;101555.84;5052973;28;20028;-86
2022/01/06 02:20:25;;;;;;;21.80;3.40;;;;;;;1.75;84.06;101560.91;5050199;28;20071;-85
2022/01/06 02:22:52;;;;;;;24.13;4.33;;;;;;;1.72;83.76;101555.69;5052782;28;20068;-85
2022/01/06 02:25:18;;;;;;;21.27;3.80;;;;;;;1.70;84.00;101562.53;5050615;28;20025;-85
2022/01/06 02:27:49;;;;;;;21.50;3.87;;;;;;;1.69;84.00;101571.03;5051076;28;20041;-86
2022/01/06 02:30:16;;;;;;;19.13;3.75;;;;;;;1.67;83.96;101571.88;5052823;28;20437;-85
2022/01/06 02:32:42;;;;;;;19.53;3.30;;;;;;;1.64;83.66;101564.09;5052954;28;20060;-86
2022/01/06 02:35:10;;;;;;;19.77;3.57;;;;;;;1.64;83.84;101565.78;5050285;28;20071;-86
2022/01/06 02:37:36;;;;;;;20.07;3.30;;;;;;;1.64;84.04;101568.34;5052293;28;20025;-85
2022/01/06 02:40:06;;;;;;;16.73;3.47;;;;;;;1.62;84.25;101565.75;5051631;28;20059;-85
2022/01/06 02:42:31;;;;;;;18.83;3.47;;;;;;;1.63;84.06;101571.75;5051512;28;20052;-85
2022/01/06 02:44:57;;;;;;;18.00;3.20;;;;;;;1.59;84.02;101570.81;5050866;28;20033;-85
2022/01/06 02:47:22;;;;;;;24.07;4.13;;;;;;;1.58;83.91;101576.78;5051289;28;20028;-85
2022/01/06 02:49:47;;;;;;;22.00;3.57;;;;;;;1.57;83.93;101566.50;5057368;28;20021;-85
2022/01/06 02:52:13;;;;;;;23.40;3.80;;;;;;;1.55;83.91;101579.25;5054416;28;20028;-85
2022/01/06 02:54:38;;;;;;;19.70;3.83;;;;;;;1.53;83.85;101565.56;5034557;28;20032;-86
2022/01/06 02:57:04;;;;;;;22.03;3.10;;;;;;;1.52;83.92;101562.13;5052395;28;20472;-85
2022/01/06 02:59:29;;;;;;;22.63;3.40;;;;;;;1.48;83.79;101560.31;5051794;28;20476;-86
2022/01/06 03:01:54;;;;;;;20.47;3.53;;;;;;;1.48;84.10;101562.88;5052109;28;20029;-86
2022/01/06 03:04:20;;;;;;;19.70;3.70;;;;;;;1.48;84.07;101562.03;5052083;28;20028;-85
2022/01/06 03:06:46;;;;;;;19.80;3.70;;;;;;;1.48;84.16;101562.03;5050658;28;20448;-85
2022/01/06 03:09:11;;;;;;;22.13;3.87;;;;;;;1.46;84.46;101571.38;5052383;28;20029;-85
2022/01/06 03:11:41;;;;;;;20.03;3.97;;;;;;;1.44;84.34;101568.78;5050968;28;20025;-86
2022/01/06 03:14:07;;;;;;;20.43;3.63;;;;;;;1.45;84.16;101569.63;5051672;28;20090;-86
2022/01/06 03:16:32;;;;;;;20.33;4.20;;;;;;;1.44;84.11;101573.91;5049096;28;20411;-85
2022/01/06 03:18:58;;;;;;;23.30;3.80;;;;;;;1.44;84.24;101570.47;5052268;28;20119;-85
2022/01/06 03:21:23;;;;;;;20.73;3.20;;;;;;;1.43;84.14;101584.09;5051049;28;20487;-85
2022/01/06 03:23:48;;;;;;;21.73;3.90;;;;;;;1.40;84.09;101584.91;5051351;28;20029;-85
2022/01/06 03:26:14;;;;;;;20.90;3.27;;;;;;;1.38;84.11;101584.00;5050448;28;20029;-86
2022/01/06 03:28:39;;;;;;;22.57;3.60;;;;;;;1.35;84.02;101582.25;5050751;28;20029;-86
2022/01/06 03:31:05;;;;;;;19.83;3.73;;;;;;;1.34;83.84;101583.06;5050451;28;20098;-85
2022/01/06 03:33:30;;;;;;;20.73;3.53;;;;;;;1.32;84.02;101592.41;5047489;28;20028;-85
2022/01/06 03:35:55;;;;;;;21.57;3.33;;;;;;;1.32;83.77;101601.78;5051029;28;20608;-86
2022/01/06 03:38:20;;;;;;;20.37;3.67;;;;;;;1.33;84.02;101606.09;5049391;28;20092;-86
2022/01/06 03:40:46;;;;;;;16.90;3.60;;;;;;;1.30;83.97;101603.44;5050580;28;20029;-85
2022/01/06 03:43:11;;;;;;;18.67;3.60;;;;;;;1.27;83.69;101606.81;5049594;28;20027;-85
2022/01/06 03:45:36;;;;;;;19.80;3.73;;;;;;;1.26;83.66;101597.38;5051968;28;20029;-85
2022/01/06 03:48:03;;;;;;;22.77;3.97;;;;;;;1.24;84.13;101604.16;5051284;28;20103;-85
2022/01/06 03:50:30;;;;;;;18.10;3.20;;;;;;;1.23;84.17;101602.44;5032442;28;20029;-85
2022/01/06 03:52:55;;;;;;;20.10;3.53;;;;;;;1.22;83.97;101595.56;5049106;28;20028;-85
2022/01/06 03:55:20;;;;;;;22.20;3.47;;;;;;;1.23;84.10;101599.88;5050074;28;20029;-85
2022/01/06 03:57:46;;;;;;;20.73;3.90;;;;;;;1.22;84.23;101600.69;5051637;28;20021;-85
2022/01/06 04:00:16;;;;;;;21.87;3.73;;;;;;;1.22;84.06;101603.25;5049980;28;20036;-85
2022/01/06 04:02:43;;;;;;;22.70;4.07;;;;;;;1.22;84.10;101608.38;5051521;28;20021;-85
2022/01/06 04:05:09;;;;;;;22.13;3.73;;;;;;;1.21;84.21;101606.66;5051282;28;20415;-86
2022/01/06 04:07:35;;;;;;;19.67;3.27;;;;;;;1.21;84.17;101611.78;5049831;28;20024;-86
2022/01/06 04:10:01;;;;;;;19.10;3.27;;;;;;;1.19;84.19;101606.63;5032037;28;20073;-85
2022/01/06 04:12:27;;;;;;;21.50;3.63;;;;;;;1.20;84.24;101602.34;5049643;28;20460;-85
2022/01/06 04:14:52;;;;;;;15.20;3.33;;;;;;;1.17;84.17;101602.28;5050425;28;20112;-85
2022/01/06 04:17:17;;;;;;;25.27;3.80;;;;;;;1.18;84.17;101601.47;5050696;28;20426;-85
2022/01/06 04:19:43;;;;;;;24.43;4.00;;;;;;;1.16;84.26;101610.81;5054009;28;20028;-85
2022/01/06 04:22:08;;;;;;;19.63;3.63;;;;;;;1.14;84.06;101617.59;5050132;28;20031;-85
2022/01/06 04:24:34;;;;;;;19.67;3.40;;;;;;;1.13;84.00;101616.69;5049520;28;20573;-86
2022/01/06 04:26:59;;;;;;;20.47;4.30;;;;;;;1.14;84.06;101622.72;5048043;28;20068;-86
2022/01/06 04:29:25;;;;;;;16.80;3.30;;;;;;;1.14;83.89;101625.28;5050640;28;20028;-86
2022/01/06 04:31:50;;;;;;;15.80;2.93;;;;;;;1.11;84.14;101633.72;5050564;28;20446;-85
2022/01/06 04:34:15;;;;;;;21.50;3.87;;;;;;;1.10;84.22;101633.69;5050867;28;20029;-85
2022/01/06 04:36:47;;;;;;;20.37;3.13;;;;;;;1.10;84.35;101636.25;5049326;28;20086;-85
2022/01/06 04:39:12;;;;;;;23.83;3.90;;;;;;;1.08;84.39;101635.34;5048906;28;20061;-86
2022/01/06 04:41:37;;;;;;;17.80;3.50;;;;;;;1.08;84.21;101640.47;5050383;28;20381;-85
2022/01/06 04:44:03;;;;;;;18.27;3.13;;;;;;;1.06;84.48;101641.31;5048181;28;20032;-85
2022/01/06 04:46:28;;;;;;;17.20;3.43;;;;;;;1.08;84.31;101643.03;5046028;28;20036;-85
2022/01/06 04:48:53;;;;;;;17.23;3.37;;;;;;;1.05;84.09;101634.44;5049305;28;20021;-85
2022/01/06 04:51:19;;;;;;;19.83;3.10;;;;;;;1.08;84.19;101643.94;5048718;28;20044;-85
2022/01/06 04:53:44;;;;;;;19.93;3.63;;;;;;;1.06;84.29;101643.88;5049918;28;20475;-85
2022/01/06 04:56:09;;;;;;;16.20;3.10;;;;;;;1.05;84.24;101643.84;5050841;28;20064;-85
2022/01/06 04:58:36;;;;;;;15.77;2.73;;;;;;;1.05;83.69;101646.41;5048259;28;20040;-86
2022/01/06 05:01:01;;;;;;;16.10;2.97;;;;;;;1.03;83.88;101659.16;5049215;28;20021;-85
2022/01/06 05:03:26;;;;;;;19.30;3.13;;;;;;;1.02;83.94;101661.69;5048369;28;20079;-86
2022/01/06 05:05:51;;;;;;;21.30;2.97;;;;;;;1.00;83.91;101659.09;5049444;28;20476;-85
2022/01/06 05:08:16;;;;;;;21.27;3.30;;;;;;;1.02;83.89;101665.13;5050626;28;20040;-86
2022/01/06 05:10:42;;;;;;;18.77;2.90;;;;;;;1.02;84.01;101664.25;5049747;28;20496;-86
2022/01/06 05:13:07;;;;;;;19.57;3.00;;;;;;;1.03;84.14;101666.00;5050475;28;20029;-85
2022/01/06 05:15:32;;;;;;;21.20;3.53;;;;;;;1.04;84.22;101672.84;5048117;28;20076;-85
2022/01/06 05:17:58;;;;;;;20.97;3.20;;;;;;;1.03;84.38;101671.97;5050323;28;20033;-85
2022/01/06 05:20:25;;;;;;;19.77;3.50;;;;;;;1.04;84.17;101673.69;5049419;28;20037;-85
2022/01/06 05:22:54;;;;;;;22.50;3.37;;;;;;;1.04;84.12;101676.28;5032566;28;20049;-85
2022/01/06 05:25:24;;;;;;;17.50;3.50;;;;;;;1.04;84.08;101678.84;5051470;28;20044;-86
2022/01/06 05:27:49;;;;;;;22.53;3.10;;;;;;;1.03;84.11;101682.22;5049907;28;20083;-86
2022/01/06 05:30:15;;;;;;;19.57;3.40;;;;;;;1.03;84.22;101683.94;5049612;28;20442;-85
2022/01/06 05:32:40;;;;;;;17.53;3.50;;;;;;;1.00;83.98;101687.28;5050194;28;20112;-86
2022/01/06 05:35:06;;;;;;;21.80;3.40;;;;;;;0.99;84.25;101688.09;5050141;28;20525;-86
2022/01/06 05:37:31;;;;;;;20.83;3.40;;;;;;;1.01;84.03;101689.03;5044742;28;20127;-85
2022/01/06 05:39:56;;;;;;;23.57;3.70;;;;;;;1.01;84.11;101689.03;5058768;28;20067;-85
2022/01/06 05:42:22;;;;;;;23.53;3.60;;;;;;;1.01;83.80;101695.81;5054560;28;20055;-85
2022/01/06 05:44:47;;;;;;;29.97;3.70;;;;;;;1.00;83.95;101691.53;5054537;28;20127;-85
2022/01/06 05:47:12;;;;;;;25.20;4.23;;;;;;;0.98;84.12;101703.41;5054455;28;20044;-85
2022/01/06 05:49:37;;;;;;;16.83;3.10;;;;;;;0.97;83.95;101701.69;5053900;28;20032;-86
2022/01/06 05:52:03;;;;;;;27.57;3.90;;;;;;;0.95;84.46;101703.31;5052687;28;20033;-85
2022/01/06 05:54:28;;;;;;;18.93;3.50;;;;;;;0.94;84.32;101710.16;5054352;28;20037;-85
2022/01/06 05:56:54;;;;;;;24.37;3.60;;;;;;;0.93;84.38;101708.41;5053500;28;20143;-85
2022/01/06 05:59:19;;;;;;;21.53;3.73;;;;;;;0.91;84.39;101712.63;5053639;28;20464;-85
2022/01/06 06:01:46;;;;;;;28.77;3.87;;;;;;;0.89;84.12;101710.03;5034751;28;20025;-85
2022/01/06 06:04:11;;;;;;;24.60;4.37;;;;;;;0.88;83.97;101718.56;5054175;28;20056;-86
2022/01/06 06:06:36;;;;;;;25.10;4.27;;;;;;;0.84;84.30;101714.16;5034465;28;20064;-85
2022/01/06 06:09:02;;;;;;;28.50;3.33;;;;;;;0.83;84.34;101725.22;5054030;28;20025;-85
2022/01/06 06:11:27;;;;;;;27.53;3.97;;;;;;;0.83;84.35;101735.47;5052420;28;20033;-86
2022/01/06 06:13:52;;;;;;;25.97;3.80;;;;;;;0.81;84.58;101732.00;5052227;28;20029;-86
2022/01/06 06:16:18;;;;;;;21.57;3.50;;;;;;;0.79;84.09;101737.91;5053394;28;20037;-86
2022/01/06 06:18:43;;;;;;;19.43;3.77;;;;;;;0.80;84.42;101731.97;5050543;28;20036;-85
2022/01/06 06:21:08;;;;;;;21.73;3.17;;;;;;;0.77;84.42;101735.28;5053527;28;20028;-85
2022/01/06 06:23:34;;;;;;;19.60;3.43;;;;;;;0.77;84.53;101742.13;5052312;28;20047;-86
2022/01/06 06:25:59;;;;;;;15.17;3.00;;;;;;;0.76;84.56;101741.25;5053593;28;20032;-86
2022/01/06 06:28:24;;;;;;;15.53;3.00;;;;;;;0.75;84.53;101740.38;5051684;28;20492;-85
2022/01/06 06:30:50;;;;;;;21.77;3.60;;;;;;;0.74;84.76;101750.59;5049106;28;20056;-86
2022/01/06 06:33:15;;;;;;;18.37;2.97;;;;;;;0.74;84.61;101748.88;5057458;28;20412;-86
2022/01/06 06:35:40;;;;;;;18.27;3.23;;;;;;;0.72;84.33;101753.09;5051412;28;20033;-86
2022/01/06 06:38:05;;;;;;;15.20;3.43;;;;;;;0.72;84.59;101757.34;5054267;28;20033;-85
2022/01/06 06:40:31;;;;;;;18.00;3.40;;;;;;;0.70;84.35;101752.16;5052123;28;20108;-86
2022/01/06 06:42:56;;;;;;;16.20;3.33;;;;;;;0.70;84.78;101754.72;5053483;28;20024;-86
2022/01/06 06:45:23;;;;;;;17.17;3.30;;;;;;;0.70;84.65;101754.72;5051002;28;20079;-86
2022/01/06 06:47:49;;;;;;;21.33;3.47;;;;;;;0.68;84.78;101761.53;5034102;28;20036;-86
2022/01/06 06:50:16;;;;;;;19.43;3.40;;;;;;;0.67;84.58;101759.78;5050875;28;20091;-85
2022/01/06 06:52:45;;;;;;;20.57;3.50;;;;;;;0.67;84.65;101764.91;5048437;28;20029;-86
2022/01/06 06:55:11;;;;;;;14.50;3.03;;;;;;;0.67;84.72;101766.59;5051484;28;20683;-86
2022/01/06 06:57:37;;;;;;;22.53;3.50;;;;;;;0.67;84.87;101770.03;5049443;28;20057;-86
2022/01/06 07:00:05;;;;;;;17.10;3.33;;;;;;;0.66;84.86;101773.41;5051726;28;20481;-86
2022/01/06 07:02:31;;;;;;;17.70;3.17;;;;;;;0.65;84.92;101776.78;5051554;28;20021;-86
2022/01/06 07:04:57;;;;;;;20.93;3.97;;;;;;;0.65;84.80;101774.22;5050431;28;20044;-86
2022/01/06 07:07:22;;;;;;;18.83;3.33;;;;;;;0.65;84.64;101784.47;5047586;28;20035;-85
2022/01/06 07:09:47;;;;;;;17.30;3.17;;;;;;;0.65;84.56;101781.91;5052030;28;20033;-85
2022/01/06 07:12:13;;;;;;;19.63;4.20;;;;;;;0.62;84.61;101789.50;5048554;28;20377;-86
2022/01/06 07:14:38;;;;;;;21.10;4.10;;;;;;;0.61;84.86;101790.31;5048455;28;20064;-86
2022/01/06 07:17:03;;;;;;;20.43;3.60;;;;;;;0.60;84.67;101793.69;5052074;28;20025;-86
2022/01/06 07:19:29;;;;;;;18.77;4.13;;;;;;;0.57;84.65;101794.47;5048915;28;20040;-86
2022/01/06 07:21:54;;;;;;;20.57;4.03;;;;;;;0.58;84.86;101803.03;5046979;28;20162;-85
2022/01/06 07:24:19;;;;;;;20.80;3.83;;;;;;;0.56;85.13;101804.66;5048173;28;20021;-85
2022/01/06 07:26:44;;;;;;;20.27;4.17;;;;;;;0.55;84.78;101808.03;5049809;28;20438;-86
2022/01/06 07:29:10;;;;;;;20.00;3.73;;;;;;;0.56;85.09;101817.47;5048721;28;20064;-85
2022/01/06 07:31:35;;;;;;;16.40;3.53;;;;;;;0.57;85.24;101814.09;5050028;28;20425;-86
2022/01/06 07:34:00;;;;;;;18.93;4.03;;;;;;;0.56;85.37;101812.34;5050966;28;20029;-85
2022/01/06 07:36:26;;;;;;;19.87;4.03;;;;;;;0.58;85.44;101815.81;5048867;28;20583;-87
2022/01/06 07:38:51;;;;;;;18.23;4.03;;;;;;;0.57;85.11;101814.09;5050408;28;20539;-87
2022/01/06 07:41:16;;;;;;;20.93;4.40;;;;;;;0.56;85.18;101818.34;5048629;28;20032;-87
2022/01/06 07:43:42;;;;;;;18.53;3.73;;;;;;;0.56;85.03;101825.16;5048734;28;20037;-88
2022/01/06 07:46:07;;;;;;;22.80;4.20;;;;;;;0.57;84.98;101820.09;5048056;28;20030;-86
2022/01/06 07:48:48;;;;;;;19.30;3.80;;;;;;;0.58;85.20;101816.72;5048058;28;20017;-85
2022/01/06 07:51:14;;;;;;;20.03;4.10;;;;;;;0.59;85.44;101822.69;5030921;28;20108;-88
2022/01/06 07:53:39;;;;;;;21.00;4.50;;;;;;;0.58;85.15;101820.94;5048424;28;20013;-88
2022/01/06 07:56:04;;;;;;;21.77;4.27;;;;;;;0.57;85.80;101827.78;5049426;28;20032;-87
2022/01/06 07:58:30;;;;;;;20.43;4.57;;;;;;;0.57;85.38;101824.31;5048562;28;20502;-88
2022/01/06 08:00:56;;;;;;;28.30;4.43;;;;;;;0.58;85.52;101826.06;5048753;28;20025;-88
2022/01/06 08:03:21;;;;;;;26.83;4.53;;;;;;;0.58;85.25;101826.06;5046185;28;20025;-88
2022/01/06 08:05:46;;;;;;;19.43;5.00;;;;;;;0.59;85.25;101838.03;5047820;28;20029;-87
2022/01/06 08:08:11;;;;;;;25.43;4.87;;;;;;;0.59;85.60;101830.38;5049829;28;20013;-87
2022/01/06 08:10:37;;;;;;;24.37;5.10;;;;;;;0.58;85.17;101836.31;5049814;28;20476;-86
2022/01/06 08:13:02;;;;;;;21.17;4.90;;;;;;;0.57;84.96;101832.00;5045602;28;20028;-87
2022/01/06 08:15:27;;;;;;;17.60;5.10;;;;;;;0.57;85.42;101830.34;5045937;28;20028;-87
2022/01/06 08:17:52;;;;;;;21.83;6.00;;;;;;;0.58;85.15;101826.06;5046976;28;20029;-87
2022/01/06 08:20:18;;;;;;;21.73;5.60;;;;;;;0.58;85.22;101824.38;5046688;28;20167;-86
2022/01/06 08:22:43;;;;;;;22.80;4.77;;;;;;;0.58;85.18;101828.63;5048113;28;20046;-86
2022/01/06 08:25:10;;;;;;;19.47;4.73;;;;;;;0.60;85.02;101834.66;5046591;28;20024;-86
2022/01/06 08:27:35;;;;;;;23.13;6.10;;;;;;;0.64;85.08;101845.88;5031811;28;20415;-86
2022/01/06 08:30:00;;;;;;;21.70;5.23;;;;;;;0.65;85.05;101843.38;5048159;28;20114;-86
2022/01/06 08:32:26;;;;;;;23.53;5.10;;;;;;;0.68;85.13;101842.59;5048302;28;20123;-86
2022/01/06 08:34:51;;;;;;;22.57;4.97;;;;;;;0.66;85.14;101832.31;5048719;28;20036;-86
2022/01/06 08:37:16;;;;;;;18.47;4.63;;;;;;;0.66;85.11;101834.88;5047629;28;22054;-85
2022/01/06 08:39:42;;;;;;;19.73;4.50;;;;;;;0.64;84.61;101836.50;5044817;28;20028;-85
2022/01/06 08:42:07;;;;;;;16.20;4.30;;;;;;;0.64;84.75;101839.06;5050635;28;20528;-86
2022/01/06 08:44:33;;;;;;;18.30;4.57;;;;;;;0.65;84.94;101840.81;5045819;28;20025;-85
2022/01/06 08:47:00;;;;;;;15.27;4.40;;;;;;;0.67;84.81;101845.97;5046757;28;20035;-86
2022/01/06 08:49:26;;;;;;;18.00;4.50;;;;;;;0.66;84.86;101854.47;5029344;28;20166;-85
2022/01/06 08:51:51;;;;;;;16.63;4.23;;;;;;;0.67;85.08;101851.97;5048310;28;20510;-85
2022/01/06 08:54:17;;;;;;;21.87;5.10;;;;;;;0.69;85.32;101855.44;5046895;28;20017;-85
2022/01/06 08:56:42;;;;;;;20.70;4.80;;;;;;;0.70;85.28;101856.31;5047586;28;20036;-85
2022/01/06 08:59:07;;;;;;;22.57;5.50;;;;;;;0.71;85.25;101856.34;5031640;28;20472;-85
2022/01/06 09:01:32;;;;;;;20.57;4.57;;;;;;;0.71;84.76;101853.78;5047043;28;20021;-85
2022/01/06 09:03:59;;;;;;;21.60;5.37;;;;;;;0.74;85.36;101864.13;5047350;28;20033;-85
2022/01/06 09:06:24;;;;;;;23.37;5.13;;;;;;;0.78;85.23;101869.38;5047334;28;20028;-85
2022/01/06 09:08:50;;;;;;;21.57;5.33;;;;;;;0.80;85.24;101862.59;5047770;28;20025;-85
2022/01/06 09:11:16;;;;;;;22.33;5.23;;;;;;;0.83;85.72;101865.25;5047845;28;20476;-86
2022/01/06 09:13:41;;;;;;;20.97;4.80;;;;;;;0.83;85.53;101868.69;5049981;28;20395;-85
2022/01/06 09:16:08;;;;;;;19.13;4.70;;;;;;;0.85;85.75;101871.31;5051002;28;20025;-85
2022/01/06 09:18:34;;;;;;;16.73;4.87;;;;;;;0.88;85.74;101879.06;5049685;28;20033;-85
2022/01/06 09:21:00;;;;;;;20.63;5.57;;;;;;;0.89;85.52;101878.25;5049091;28;20028;-85
2022/01/06 09:23:25;;;;;;;20.80;5.33;;;;;;;0.93;85.37;101880.09;5050772;28;20372;-85
2022/01/06 09:25:50;;;;;;;24.80;5.17;;;;;;;0.96;85.71;101887.88;5051904;28;20115;-85
2022/01/06 09:28:16;;;;;;;21.67;5.30;;;;;;;0.99;85.56;101890.53;5050105;28;20048;-85
2022/01/06 09:30:41;;;;;;;32.17;6.37;;;;;;;1.04;85.77;101899.22;5048761;28;20893;-85
2022/01/06 09:33:06;;;;;;;26.33;5.57;;;;;;;1.04;85.87;101894.09;5051467;28;20020;-85
2022/01/06 09:35:31;;;;;;;28.07;5.77;;;;;;;1.08;85.76;101896.75;5051274;28;20025;-84
2022/01/06 09:37:57;;;;;;;22.70;5.60;;;;;;;1.11;85.67;101900.25;5051130;28;20051;-85
2022/01/06 09:40:22;;;;;;;33.67;6.13;;;;;;;1.16;85.90;101895.31;5050892;28;21226;-84
2022/01/06 09:42:47;;;;;;;27.03;6.37;;;;;;;1.18;85.87;101903.91;5051510;28;20107;-85
2022/01/06 09:45:13;;;;;;;32.60;6.07;;;;;;;1.22;85.94;101903.16;5051631;28;20480;-85
2022/01/06 09:47:40;;;;;;;32.90;6.47;;;;;;;1.26;85.96;101905.00;5053061;28;20029;-85
2022/01/06 09:50:07;;;;;;;23.27;6.40;;;;;;;1.30;86.09;101911.06;5053410;28;20107;-85
2022/01/06 09:52:34;;;;;;;31.63;6.80;;;;;;;1.34;86.13;101908.66;5051670;28;20029;-85
2022/01/06 09:54:59;;;;;;;27.70;7.07;;;;;;;1.39;86.32;101913.03;5051790;28;20063;-86
2022/01/06 09:57:25;;;;;;;21.80;6.63;;;;;;;1.42;86.26;101908.00;5051274;28;20067;-86
2022/01/06 09:59:50;;;;;;;23.27;6.90;;;;;;;1.43;86.14;101909.75;5050862;28;20021;-85
2022/01/06 10:02:16;;;;;;;25.47;6.97;;;;;;;1.47;86.21;101909.03;5051997;28;20074;-85
2022/01/06 10:04:48;;;;;;;30.47;8.13;;;;;;;1.51;86.23;101916.00;5048803;28;20081;-86
2022/01/06 10:07:15;;;;;;;21.20;7.43;;;;;;;1.56;86.18;101911.84;5048622;28;20073;-85
2022/01/06 10:09:40;;;;;;;29.23;7.73;;;;;;;1.60;86.23;101916.25;5047607;28;20028;-85
2022/01/06 10:12:11;;;;;;;26.67;8.00;;;;;;;1.66;86.35;101910.41;5049318;28;20029;-85
2022/01/06 10:24:52;;;;;;;19.42;4.10;;;;;;;8.95;73.90;101874.34;5143140;27;20344;-87
2022/01/06 10:27:20;;;;;;;14.73;4.28;;;;;;;7.89;74.38;101877.78;5131370;27;20383;-88
2022/01/06 10:29:51;;;;;;;12.50;4.25;;;;;;;6.94;76.63;101886.88;5124132;27;20027;-88
2022/01/06 10:32:21;;;;;;;12.90;4.30;;;;;;;6.14;79.01;101890.59;5132555;27;20349;-89
2022/01/06 10:34:51;;;;;;;12.30;4.78;;;;;;;5.44;78.82;101894.94;5142469;27;20363;-88
2022/01/06 10:37:21;;;;;;;13.30;4.40;;;;;;;4.93;80.45;101898.53;5141753;27;20098;-87
2022/01/06 10:39:48;;;;;;;14.63;4.40;;;;;;;4.49;81.31;101895.28;5143673;27;20034;-88
2022/01/06 10:42:14;;;;;;;17.85;5.45;;;;;;;4.19;81.98;101893.06;5148165;27;20485;-88
2022/01/06 10:44:51;;;;;;;11.15;4.47;;;;;;;3.95;82.75;101900.34;5141173;27;20054;-87
2022/01/06 10:47:32;;;;;;;14.13;4.53;;;;;;;3.74;84.08;101884.50;5143212;27;20076;-88
2022/01/06 10:50:19;;;;;;;18.63;5.18;;;;;;;3.55;83.92;101886.69;5142999;27;20493;-88
2022/01/06 10:52:53;;;;;;;14.07;5.00;;;;;;;3.40;83.86;101887.28;5141969;27;20031;-88
2022/01/06 10:55:26;;;;;;;14.57;4.53;;;;;;;3.32;84.26;101886.22;5139998;27;20107;-88
2022/01/06 10:58:06;;;;;;;13.63;4.93;;;;;;;3.28;85.26;101881.84;5139431;27;20179;-88
2022/01/06 11:00:53;;;;;;;12.30;5.23;;;;;;;3.22;85.26;101881.75;5139026;27;20666;-88
2022/01/06 11:03:21;;;;;;;16.27;4.63;;;;;;;3.19;85.34;101879.94;5140118;27;20023;-88
2022/01/06 11:05:56;;;;;;;19.87;4.97;;;;;;;3.18;85.49;101873.06;5144496;27;20031;-88
2022/01/06 11:08:27;;;;;;;14.13;5.27;;;;;;;3.18;86.08;101873.94;5142991;27;20475;-88
2022/01/06 11:13:42;;;;;;;13.20;5.20;;;;;;;3.26;85.60;101881.81;5141731;27;20027;-88
2022/01/06 11:16:12;;;;;;;14.50;4.70;;;;;;;3.31;85.57;101877.66;5138214;27;20058;-90
2022/01/06 11:18:40;;;;;;;17.67;4.87;;;;;;;3.36;85.43;101876.88;5137603;27;20023;-90
2022/01/06 11:21:10;;;;;;;15.60;5.10;;;;;;;3.38;85.18;101883.78;5139835;27;20496;-90
2022/01/06 11:23:36;;;;;;;20.83;4.90;;;;;;;3.38;85.42;101881.22;5136149;27;20444;-89
2022/01/06 11:26:07;;;;;;;14.97;4.87;;;;;;;3.40;85.27;101876.97;5138405;27;20015;-88
2022/01/06 11:28:34;;;;;;;19.88;4.80;;;;;;;3.38;85.13;101876.06;5134215;27;20095;-88
2022/01/06 11:31:17;;;;;;;16.33;4.80;;;;;;;3.41;85.03;101871.00;5135080;27;20030;-88
2022/01/06 11:33:44;;;;;;;17.27;5.30;;;;;;;3.43;85.07;101877.03;5139037;27;20129;-88
2022/01/06 11:36:29;;;;;;;16.17;4.50;;;;;;;3.47;85.21;101868.53;5122126;27;20035;-87
2022/01/06 11:38:56;;;;;;;14.97;4.43;;;;;;;3.51;85.60;101866.88;5122828;27;20066;-87
2022/01/06 11:41:32;;;;;;;15.17;4.47;;;;;;;3.58;85.24;101873.06;5123448;27;20088;-89